createdAt,value
2022-10-09T00:01:21.427Z,102428.28
2022-10-09T00:03:51.707Z,102433.34
2022-10-09T00:06:25.608Z,102422.75
2022-10-09T00:08:53.287Z,102427.13
2022-10-09T00:11:25.141Z,102421.75
2022-10-09T00:13:54.106Z,102432.13
2022-10-09T00:16:22.747Z,102416.41
2022-10-09T00:18:50.947Z,102436.41
2022-10-09T00:21:32.007Z,102425.66
2022-10-09T00:24:02.372Z,102430.94
2022-10-09T00:26:29.827Z,102430.78
2022-10-09T00:28:57.412Z,102426.38
2022-10-09T00:31:24.670Z,102425.28
2022-10-09T00:33:51.627Z,102435.00
2022-10-09T00:36:22.316Z,102439.31
2022-10-09T00:38:50.261Z,102430.31
2022-10-09T00:41:25.310Z,102425.13
2022-10-09T00:44:00.061Z,102437.38
2022-10-09T00:46:44.941Z,102432.88
2022-10-09T00:49:32.631Z,102431.03
2022-10-09T00:52:06.326Z,102423.00
2022-10-09T00:54:37.480Z,102423.78
2022-10-09T00:57:04.532Z,102418.53
2022-10-09T00:59:32.463Z,102418.47
2022-10-09T01:01:59.839Z,102416.94
2022-10-09T01:04:27.000Z,102421.09
2022-10-09T01:07:15.430Z,102416.50
2022-10-09T01:10:08.351Z,102424.31
2022-10-09T01:13:11.645Z,102417.94
2022-10-09T01:16:18.324Z,102412.56
2022-10-09T01:19:16.300Z,102414.91
2022-10-09T01:22:02.184Z,102419.34
2022-10-09T01:25:01.917Z,102417.19
2022-10-09T01:27:30.837Z,102411.94
2022-10-09T01:30:08.663Z,102405.09
2022-10-09T01:32:43.957Z,102401.50
2022-10-09T01:35:14.222Z,102399.63
2022-10-09T01:37:45.642Z,102396.72
2022-10-09T01:40:16.882Z,102401.13
2022-10-09T01:42:47.306Z,102396.72
2022-10-09T01:45:15.993Z,102386.91
2022-10-09T01:47:43.407Z,102399.06
2022-10-09T01:50:13.209Z,102393.69
2022-10-09T01:53:02.173Z,102393.53
2022-10-09T01:55:51.383Z,102394.38
2022-10-09T01:58:41.924Z,102395.03
2022-10-09T02:01:25.338Z,102382.56
2022-10-09T02:03:54.526Z,102383.31
2022-10-09T02:06:22.481Z,102378.38
2022-10-09T02:08:52.283Z,102369.38
2022-10-09T02:11:19.424Z,102366.66
2022-10-09T02:13:49.716Z,102367.44
2022-10-09T02:16:39.206Z,102361.16
2022-10-09T02:19:22.774Z,102353.19
2022-10-09T02:22:06.746Z,102367.06
2022-10-09T02:24:34.577Z,102356.44
2022-10-09T02:27:02.879Z,102363.34
2022-10-09T02:29:29.992Z,102362.25
2022-10-09T02:31:56.938Z,102361.41
2022-10-09T02:34:24.001Z,102356.03
2022-10-09T02:36:51.405Z,102358.03
2022-10-09T02:39:18.821Z,102357.00
2022-10-09T02:41:45.797Z,102344.72
2022-10-09T02:44:12.746Z,102359.38
2022-10-09T02:46:39.810Z,102354.06
2022-10-09T02:49:07.360Z,102352.25
2022-10-09T02:51:34.889Z,102358.03
2022-10-09T02:54:02.172Z,102348.44
2022-10-09T02:56:29.597Z,102338.84
2022-10-09T02:58:56.582Z,102353.56
2022-10-09T03:01:23.983Z,102347.28
2022-10-09T03:03:51.084Z,102340.16
2022-10-09T03:06:22.248Z,102338.56
2022-10-09T03:08:51.815Z,102329.75
2022-10-09T03:11:21.374Z,102332.50
2022-10-09T03:13:48.930Z,102336.56
2022-10-09T03:16:20.766Z,102334.78
2022-10-09T03:18:49.215Z,102343.38
2022-10-09T03:21:23.022Z,102342.38
2022-10-09T03:23:51.028Z,102334.31
2022-10-09T03:26:22.384Z,102340.44
2022-10-09T03:28:51.657Z,102342.84
2022-10-09T03:31:47.015Z,102346.22
2022-10-09T03:34:10.865Z,102338.44
2022-10-09T03:36:38.008Z,102347.13
2022-10-09T03:39:05.090Z,102339.03
2022-10-09T03:41:32.119Z,102339.94
2022-10-09T03:43:59.251Z,102338.22
2022-10-09T03:46:26.227Z,102337.38
2022-10-09T03:48:53.224Z,102341.28
2022-10-09T03:51:20.214Z,102345.78
2022-10-09T03:53:47.272Z,102342.34
2022-10-09T03:56:14.242Z,102345.78
2022-10-09T03:58:41.360Z,102340.53
2022-10-09T04:01:08.522Z,102349.31
2022-10-09T04:03:35.596Z,102342.88
2022-10-09T04:06:02.572Z,102343.66
2022-10-09T04:08:29.529Z,102336.94
2022-10-09T04:11:01.235Z,102345.56
2022-10-09T04:13:28.484Z,102340.06
2022-10-09T04:15:56.475Z,102330.25
2022-10-09T04:18:24.124Z,102326.00
2022-10-09T04:20:53.499Z,102333.63
2022-10-09T04:23:23.593Z,102335.13
2022-10-09T04:25:59.522Z,102324.72
2022-10-09T04:28:28.386Z,102330.78
2022-10-09T04:30:57.355Z,102330.94
2022-10-09T04:33:26.463Z,102323.75
2022-10-09T04:35:55.089Z,102325.41
2022-10-09T04:38:23.449Z,102323.47
2022-10-09T04:41:05.806Z,102321.66
2022-10-09T04:43:34.937Z,102324.44
2022-10-09T04:46:12.501Z,102311.19
2022-10-09T04:48:42.436Z,102317.09
2022-10-09T04:51:10.234Z,102309.94
2022-10-09T04:53:38.442Z,102312.34
2022-10-09T04:56:12.423Z,102310.78
2022-10-09T04:58:40.813Z,102310.84
2022-10-09T05:01:17.702Z,102302.00
2022-10-09T05:03:44.891Z,102292.28
2022-10-09T05:06:14.166Z,102294.00
2022-10-09T05:08:42.437Z,102297.38
2022-10-09T05:11:14.743Z,102287.66
2022-10-09T05:13:46.203Z,102285.84
2022-10-09T05:16:17.607Z,102283.00
2022-10-09T05:18:53.664Z,102283.00
2022-10-09T05:21:21.435Z,102287.34
2022-10-09T05:23:49.516Z,102275.22
2022-10-09T05:26:19.975Z,102277.53
2022-10-09T05:28:48.022Z,102278.38
2022-10-09T05:31:26.144Z,102293.41
2022-10-09T05:33:54.683Z,102284.59
2022-10-09T05:36:22.094Z,102281.88
2022-10-09T05:38:49.432Z,102286.31
2022-10-09T05:41:19.090Z,102280.31
2022-10-09T05:43:48.526Z,102288.03
2022-10-09T05:46:21.086Z,102288.16
2022-10-09T05:49:05.318Z,102285.56
2022-10-09T05:51:44.348Z,102293.25
2022-10-09T05:54:16.872Z,102294.97
2022-10-09T05:56:45.225Z,102297.53
2022-10-09T05:59:19.945Z,102290.41
2022-10-09T06:01:50.750Z,102299.31
2022-10-09T06:04:23.240Z,102291.31
2022-10-09T06:06:51.364Z,102298.09
2022-10-09T06:09:23.082Z,102289.34
2022-10-09T06:11:51.538Z,102293.59
2022-10-09T06:14:21.984Z,102290.06
2022-10-09T06:16:49.785Z,102297.03
2022-10-09T06:19:19.441Z,102294.50
2022-10-09T06:21:47.647Z,102296.28
2022-10-09T06:24:29.057Z,102289.50
2022-10-09T06:26:57.907Z,102292.78
2022-10-09T06:29:25.117Z,102293.75
2022-10-09T06:31:52.171Z,102292.78
2022-10-09T06:34:19.533Z,102290.34
2022-10-09T06:36:46.479Z,102297.53
2022-10-09T06:39:13.458Z,102302.75
2022-10-09T06:41:40.987Z,102299.41
2022-10-09T06:44:16.068Z,102294.97
2022-10-09T06:46:45.683Z,102290.78
2022-10-09T06:49:13.092Z,102288.25
2022-10-09T06:51:40.222Z,102292.88
2022-10-09T06:54:14.426Z,102294.84
2022-10-09T06:56:41.725Z,102298.69
2022-10-09T06:59:11.172Z,102292.03
2022-10-09T07:01:38.272Z,102300.03
2022-10-09T07:04:11.116Z,102294.09
2022-10-09T07:06:42.236Z,102301.38
2022-10-09T07:09:12.840Z,102298.31
2022-10-09T07:11:45.956Z,102296.88
2022-10-09T07:14:15.943Z,102299.03
2022-10-09T07:16:47.499Z,102298.50
2022-10-09T07:19:17.505Z,102289.22
2022-10-09T07:21:49.119Z,102297.50
2022-10-09T07:24:17.665Z,102289.94
2022-10-09T07:26:46.475Z,102289.31
2022-10-09T07:29:16.795Z,102288.09
2022-10-09T07:31:44.130Z,102297.91
2022-10-09T07:34:11.235Z,102285.31
2022-10-09T07:36:38.229Z,102285.75
2022-10-09T07:39:05.867Z,102281.84
2022-10-09T07:41:33.127Z,102278.84
2022-10-09T07:44:00.124Z,102285.16
2022-10-09T07:46:33.268Z,102279.41
2022-10-09T07:49:01.412Z,102285.03
2022-10-09T07:51:30.139Z,102275.91
2022-10-09T07:53:58.271Z,102280.72
2022-10-09T07:56:29.452Z,102280.13
2022-10-09T07:59:03.751Z,102283.28
2022-10-09T08:01:33.570Z,102280.13
2022-10-09T08:04:02.738Z,102270.03
2022-10-09T08:06:30.297Z,102271.44
2022-10-09T08:09:00.217Z,102267.50
2022-10-09T08:11:29.832Z,102271.13
2022-10-09T08:13:57.432Z,102264.66
2022-10-09T08:16:26.177Z,102272.00
2022-10-09T08:19:01.190Z,102274.19
2022-10-09T08:21:28.754Z,102269.38
2022-10-09T08:23:58.808Z,102264.56
2022-10-09T08:26:28.894Z,102262.22
2022-10-09T08:29:00.039Z,102263.56
2022-10-09T08:31:28.409Z,102256.75
2022-10-09T08:33:57.987Z,102249.25
2022-10-09T08:36:26.491Z,102249.63
2022-10-09T08:38:54.449Z,102254.44
2022-10-09T08:41:42.202Z,102245.00
2022-10-09T08:44:46.797Z,102247.03
2022-10-09T08:47:21.075Z,102243.13
2022-10-09T08:50:11.056Z,102236.47
2022-10-09T08:52:53.471Z,102238.63
2022-10-09T08:55:45.795Z,102227.50
2022-10-09T08:58:21.418Z,102243.63
2022-10-09T09:01:33.014Z,102236.13
2022-10-09T09:04:54.462Z,102223.38
2022-10-09T09:08:05.581Z,102224.56
2022-10-09T09:11:07.211Z,102227.63
2022-10-09T09:13:52.794Z,102224.31
2022-10-09T09:16:45.706Z,102211.38
2022-10-09T09:19:40.726Z,102206.59
2022-10-09T09:22:14.384Z,102212.19
2022-10-09T09:24:55.213Z,102210.75
2022-10-09T09:27:33.848Z,102205.91
2022-10-09T09:30:32.859Z,102199.00
2022-10-09T09:33:45.008Z,102192.16
2022-10-09T09:36:31.288Z,102184.59
2022-10-09T09:41:45.965Z,102174.56
2022-10-09T09:44:15.074Z,102174.03
2022-10-09T09:46:43.823Z,102167.03
2022-10-09T09:49:27.203Z,102161.06
2022-10-09T09:51:58.452Z,102149.72
2022-10-09T09:54:30.511Z,102150.09
2022-10-09T09:57:12.815Z,102154.63
2022-10-09T09:59:45.915Z,102149.53
2022-10-09T10:02:26.213Z,102146.28
2022-10-09T10:04:59.599Z,102147.31
2022-10-09T10:07:36.225Z,102142.16
2022-10-09T10:10:25.867Z,102144.09
2022-10-09T10:12:53.402Z,102143.47
2022-10-09T10:15:33.366Z,102133.72
2022-10-09T10:18:07.628Z,102128.59
2022-10-09T10:20:51.339Z,102123.59
2022-10-09T10:23:40.752Z,102124.53
2022-10-09T10:26:35.382Z,102115.91
2022-10-09T10:29:17.419Z,102108.03
2022-10-09T10:31:54.428Z,102113.53
2022-10-09T10:34:31.950Z,102104.03
2022-10-09T10:37:47.785Z,102102.34
2022-10-09T10:40:53.965Z,102100.78
2022-10-09T10:43:43.653Z,102106.13
2022-10-09T10:46:49.026Z,102086.78
2022-10-09T10:49:23.195Z,102080.66
2022-10-09T10:52:35.272Z,102083.47
2022-10-09T10:55:45.620Z,102070.19
2022-10-09T10:58:31.441Z,102067.72
2022-10-09T11:01:16.456Z,102062.59
2022-10-09T11:04:34.651Z,102061.72
2022-10-09T11:07:10.248Z,102057.28
2022-10-09T11:10:03.453Z,102054.88
2022-10-09T11:12:54.046Z,102045.94
2022-10-09T11:15:34.294Z,102053.13
2022-10-09T11:18:06.670Z,102036.44
2022-10-09T11:20:57.913Z,102042.59
2022-10-09T11:24:12.495Z,102026.63
2022-10-09T11:27:09.624Z,102020.53
2022-10-09T11:30:00.435Z,102016.25
2022-10-09T11:32:59.374Z,102008.28
2022-10-09T11:35:42.047Z,102009.16
2022-10-09T11:38:37.245Z,102004.78
2022-10-09T11:41:07.439Z,102004.78
2022-10-09T11:44:24.547Z,101993.31
2022-10-09T11:47:20.471Z,101982.69
2022-10-09T11:50:02.412Z,101977.41
2022-10-09T11:52:58.559Z,101976.53
2022-10-09T11:55:29.871Z,101977.47
2022-10-09T11:58:09.344Z,101967.66
2022-10-09T12:00:38.507Z,101962.41
2022-10-09T12:03:07.613Z,101964.16
2022-10-09T12:05:46.190Z,101956.22
2022-10-09T12:08:25.700Z,101950.00
2022-10-09T12:10:59.592Z,101936.66
2022-10-09T12:13:41.766Z,101941.13
2022-10-09T12:16:32.429Z,101926.00
2022-10-09T12:19:03.829Z,101931.34
2022-10-09T12:21:48.637Z,101918.91
2022-10-09T12:24:27.895Z,101910.03
2022-10-09T12:26:59.704Z,101908.22
2022-10-09T12:29:43.302Z,101902.00
2022-10-09T12:32:37.448Z,101894.88
2022-10-09T12:35:39.213Z,101885.09
2022-10-09T12:38:26.090Z,101874.44
2022-10-09T12:40:55.661Z,101874.41
2022-10-09T12:43:24.570Z,101863.75
2022-10-09T12:45:53.732Z,101868.16
2022-10-09T12:48:25.868Z,101858.41
2022-10-09T12:50:54.239Z,101854.81
2022-10-09T12:53:27.844Z,101852.16
2022-10-09T12:56:00.917Z,101839.69
2022-10-09T12:58:39.396Z,101834.28
2022-10-09T13:01:12.367Z,101837.00
2022-10-09T13:03:41.929Z,101826.31
2022-10-09T13:06:21.881Z,101829.91
2022-10-09T13:09:02.556Z,101826.34
2022-10-09T13:11:40.625Z,101822.75
2022-10-09T13:14:41.401Z,101813.84
2022-10-09T13:17:33.417Z,101812.94
2022-10-09T13:20:12.391Z,101809.34
2022-10-09T13:22:39.872Z,101812.97
2022-10-09T13:25:07.623Z,101798.69
2022-10-09T13:27:39.473Z,101796.94
2022-10-09T13:30:07.641Z,101789.84
2022-10-09T13:32:34.582Z,101794.28
2022-10-09T13:35:01.529Z,101790.66
2022-10-09T13:37:28.536Z,101782.69
2022-10-09T13:39:58.886Z,101777.34
2022-10-09T13:42:31.364Z,101764.81
2022-10-09T13:44:58.407Z,101770.19
2022-10-09T13:47:25.438Z,101767.50
2022-10-09T13:49:52.488Z,101758.72
2022-10-09T13:52:19.474Z,101756.03
2022-10-09T13:54:46.471Z,101756.03
2022-10-09T13:57:13.556Z,101758.69
2022-10-09T13:59:40.489Z,101751.56
2022-10-09T14:02:07.989Z,101748.94
2022-10-09T14:04:34.927Z,101746.25
2022-10-09T14:07:01.977Z,101733.78
2022-10-09T14:09:28.975Z,101727.53
2022-10-09T14:11:56.040Z,101729.28
2022-10-09T14:14:23.066Z,101715.16
2022-10-09T14:16:50.888Z,101714.25
2022-10-09T14:19:18.143Z,101700.03
2022-10-09T14:21:46.891Z,101704.47
2022-10-09T14:24:14.912Z,101703.63
2022-10-09T14:26:41.868Z,101703.66
2022-10-09T14:29:13.009Z,101686.69
2022-10-09T14:31:40.564Z,101692.94
2022-10-09T14:34:07.600Z,101696.50
2022-10-09T14:36:37.179Z,101682.31
2022-10-09T14:39:04.588Z,101677.00
2022-10-09T14:41:36.818Z,101666.31
2022-10-09T14:44:05.017Z,101667.19
2022-10-09T14:46:34.037Z,101657.34
2022-10-09T14:49:07.284Z,101653.84
2022-10-09T14:51:37.864Z,101661.81
2022-10-09T14:54:06.776Z,101647.63
2022-10-09T14:56:34.490Z,101651.28
2022-10-09T14:59:01.983Z,101645.03
2022-10-09T15:01:30.040Z,101646.00
2022-10-09T15:03:57.304Z,101638.00
2022-10-09T15:06:24.328Z,101638.88
2022-10-09T15:08:55.510Z,101641.50
2022-10-09T15:11:23.321Z,101634.38
2022-10-09T15:13:50.352Z,101626.44
2022-10-09T15:16:18.837Z,101628.22
2022-10-09T15:18:49.517Z,101629.13
2022-10-09T15:21:24.196Z,101620.31
2022-10-09T15:23:56.952Z,101614.13
2022-10-09T15:26:26.461Z,101613.25
2022-10-09T15:28:53.874Z,101608.78
2022-10-09T15:31:33.895Z,101603.50
2022-10-09T15:34:01.602Z,101602.63
2022-10-09T15:36:36.120Z,101588.44
2022-10-09T15:39:07.260Z,101595.53
2022-10-09T15:41:37.950Z,101591.13
2022-10-09T15:44:17.951Z,101581.38
2022-10-09T15:46:47.062Z,101579.63
2022-10-09T15:49:14.317Z,101573.44
2022-10-09T15:51:41.583Z,101577.94
2022-10-09T15:54:12.008Z,101581.47
2022-10-09T15:56:40.377Z,101569.97
2022-10-09T15:59:11.047Z,101576.19
2022-10-09T16:01:38.218Z,101563.78
2022-10-09T16:04:05.271Z,101571.78
2022-10-09T16:06:32.232Z,101564.75
2022-10-09T16:08:59.810Z,101561.22
2022-10-09T16:11:27.188Z,101564.78
2022-10-09T16:13:55.608Z,101564.81
2022-10-09T16:16:25.673Z,101569.28
2022-10-09T16:18:53.379Z,101562.19
2022-10-09T16:21:29.038Z,101552.44
2022-10-09T16:23:59.303Z,101551.56
2022-10-09T16:26:29.353Z,101546.28
2022-10-09T16:28:57.016Z,101539.16
2022-10-09T16:31:28.301Z,101543.59
2022-10-09T16:33:56.543Z,101548.03
2022-10-09T16:36:23.766Z,101544.50
2022-10-09T16:38:50.806Z,101538.28
2022-10-09T16:41:20.677Z,101540.97
2022-10-09T16:43:52.408Z,101535.66
2022-10-09T16:49:05.751Z,101532.09
2022-10-09T16:51:35.869Z,101525.00
2022-10-09T16:54:05.625Z,101529.38
2022-10-09T16:56:38.519Z,101537.34
2022-10-09T16:59:12.249Z,101532.00
2022-10-09T17:01:43.738Z,101531.09
2022-10-09T17:04:12.825Z,101532.00
2022-10-09T17:06:44.601Z,101530.19
2022-10-09T17:09:14.245Z,101527.50
2022-10-09T17:11:42.427Z,101523.97
2022-10-09T17:14:09.510Z,101531.03
2022-10-09T17:16:39.064Z,101530.13
2022-10-09T17:19:06.549Z,101527.44
2022-10-09T17:21:34.912Z,101537.16
2022-10-09T17:24:05.129Z,101525.63
2022-10-09T17:26:32.508Z,101529.13
2022-10-09T17:29:00.931Z,101529.06
2022-10-09T17:31:29.540Z,101522.84
2022-10-09T17:34:03.024Z,101515.75
2022-10-09T17:36:34.649Z,101523.63
2022-10-09T17:39:02.284Z,101518.25
2022-10-09T17:41:30.115Z,101524.41
2022-10-09T17:43:57.653Z,101516.41
2022-10-09T17:46:26.804Z,101519.03
2022-10-09T17:48:55.974Z,101520.72
2022-10-09T17:51:35.825Z,101518.94
2022-10-09T17:54:12.656Z,101516.25
2022-10-09T17:56:40.286Z,101522.41
2022-10-09T17:59:09.044Z,101518.81
2022-10-09T18:01:36.966Z,101518.78
2022-10-09T18:04:04.235Z,101509.00
2022-10-09T18:06:34.855Z,101507.22
2022-10-09T18:09:03.333Z,101504.50
2022-10-09T18:11:30.639Z,101501.78
2022-10-09T18:13:57.825Z,101496.44
2022-10-09T18:16:36.236Z,101501.69
2022-10-09T18:19:18.276Z,101493.66
2022-10-09T18:21:48.314Z,101498.94
2022-10-09T18:24:15.527Z,101494.47
2022-10-09T18:26:42.948Z,101490.81
2022-10-09T18:29:10.036Z,101492.56
2022-10-09T18:31:38.584Z,101491.66
2022-10-09T18:34:06.007Z,101488.09
2022-10-09T18:36:34.577Z,101481.84
2022-10-09T18:39:12.106Z,101493.22
2022-10-09T18:41:39.531Z,101491.38
2022-10-09T18:44:12.518Z,101489.59
2022-10-09T18:46:44.943Z,101494.84
2022-10-09T18:49:14.208Z,101490.38
2022-10-09T18:51:43.435Z,101487.69
2022-10-09T18:54:17.083Z,101493.75
2022-10-09T18:56:45.017Z,101486.63
2022-10-09T18:59:17.725Z,101481.28
2022-10-09T19:01:44.916Z,101483.91
2022-10-09T19:04:12.208Z,101486.53
2022-10-09T19:06:39.366Z,101480.28
2022-10-09T19:09:06.651Z,101477.66
2022-10-09T19:11:34.968Z,101480.22
2022-10-09T19:14:03.238Z,101474.88
2022-10-09T19:16:33.627Z,101479.31
2022-10-09T19:19:01.288Z,101474.81
2022-10-09T19:21:28.548Z,101475.63
2022-10-09T19:23:55.799Z,101469.44
2022-10-09T19:26:24.906Z,101467.63
2022-10-09T19:28:52.178Z,101475.44
2022-10-09T19:31:19.411Z,101475.38
2022-10-09T19:33:46.696Z,101472.69
2022-10-09T19:36:14.888Z,101473.44
2022-10-09T19:38:42.349Z,101470.69
2022-10-09T19:41:15.566Z,101456.59
2022-10-09T19:43:43.040Z,101462.66
2022-10-09T19:46:17.119Z,101452.91
2022-10-09T19:48:45.834Z,101456.38
2022-10-09T19:51:22.676Z,101447.53
2022-10-09T19:53:52.102Z,101452.75
2022-10-09T19:56:24.465Z,101440.38
2022-10-09T19:58:52.230Z,101446.50
2022-10-09T20:01:26.199Z,101442.09
2022-10-09T20:03:59.564Z,101436.78
2022-10-09T20:06:27.590Z,101439.31
2022-10-09T20:08:55.393Z,101439.28
2022-10-09T20:11:23.325Z,101431.31
2022-10-09T20:13:55.495Z,101429.53
2022-10-09T20:16:24.586Z,101424.16
2022-10-09T20:18:51.713Z,101423.19
2022-10-09T20:21:18.995Z,101424.06
2022-10-09T20:23:46.046Z,101426.63
2022-10-09T20:26:17.928Z,101425.66
2022-10-09T20:28:46.605Z,101427.34
2022-10-09T20:31:21.038Z,101430.78
2022-10-09T20:33:49.638Z,101429.00
2022-10-09T20:36:34.947Z,101432.41
2022-10-09T20:39:06.554Z,101429.69
2022-10-09T20:41:34.854Z,101428.84
2022-10-09T20:44:04.012Z,101428.69
2022-10-09T20:46:33.724Z,101429.56
2022-10-09T20:49:05.068Z,101425.06
2022-10-09T20:51:34.499Z,101423.19
2022-10-09T20:54:02.361Z,101422.31
2022-10-09T20:56:32.230Z,101414.31
2022-10-09T20:59:00.340Z,101412.44
2022-10-09T21:01:28.791Z,101419.56
2022-10-09T21:03:57.492Z,101403.66
2022-10-09T21:06:24.963Z,101408.75
2022-10-09T21:08:52.141Z,101401.78
2022-10-09T21:11:19.902Z,101403.53
2022-10-09T21:13:48.535Z,101404.38
2022-10-09T21:16:22.716Z,101402.56
2022-10-09T21:18:59.066Z,101396.34
2022-10-09T21:21:27.212Z,101399.78
2022-10-09T21:23:57.334Z,101403.31
2022-10-09T21:26:25.224Z,101403.31
2022-10-09T21:28:56.905Z,101402.38
2022-10-09T21:31:28.926Z,101402.31
2022-10-09T21:33:56.660Z,101400.50
2022-10-09T21:37:08.803Z,101399.50
2022-10-09T21:39:33.950Z,101393.38
2022-10-09T21:42:00.934Z,101401.31
2022-10-09T21:44:27.897Z,101407.31
2022-10-09T21:46:54.894Z,101398.50
2022-10-09T21:49:28.050Z,101379.06
2022-10-09T21:51:55.568Z,101378.25
2022-10-09T21:54:23.045Z,101391.34
2022-10-09T21:56:50.269Z,101389.53
2022-10-09T21:59:17.512Z,101384.25
2022-10-09T22:01:44.740Z,101381.56
2022-10-09T22:04:11.740Z,101378.94
2022-10-09T22:06:38.807Z,101378.84
2022-10-09T22:09:05.793Z,101375.25
2022-10-09T22:11:32.767Z,101372.56
2022-10-09T22:14:00.116Z,101369.16
2022-10-09T22:16:27.189Z,101363.75
2022-10-09T22:18:54.304Z,101363.72
2022-10-09T22:21:22.923Z,101369.06
2022-10-09T22:23:50.485Z,101366.34
2022-10-09T22:26:21.715Z,101361.06
2022-10-09T22:28:49.774Z,101354.81
2022-10-09T22:31:23.431Z,101368.88
2022-10-09T22:34:00.034Z,101362.66
2022-10-09T22:36:31.628Z,101367.03
2022-10-09T22:39:02.591Z,101365.31
2022-10-09T22:41:30.903Z,101368.63
2022-10-09T22:44:00.220Z,101371.25
2022-10-09T22:46:40.887Z,101365.03
2022-10-09T22:49:11.196Z,101369.34
2022-10-09T22:51:38.266Z,101364.97
2022-10-09T22:54:05.903Z,101364.97
2022-10-09T22:56:39.770Z,101364.00
2022-10-09T22:59:09.450Z,101366.50
2022-10-09T23:01:51.404Z,101363.06
2022-10-09T23:04:19.674Z,101360.34
2022-10-09T23:06:52.342Z,101359.41
2022-10-09T23:09:22.506Z,101345.28
2022-10-09T23:11:50.056Z,101356.63
2022-10-09T23:14:17.441Z,101353.00
2022-10-09T23:16:44.850Z,101347.69
2022-10-09T23:19:12.746Z,101347.66
2022-10-09T23:21:41.863Z,101352.88
2022-10-09T23:24:15.255Z,101343.19
2022-10-09T23:26:42.223Z,101340.53
2022-10-09T23:29:15.460Z,101341.34
2022-10-09T23:31:43.199Z,101336.09
2022-10-09T23:34:10.953Z,101336.03
2022-10-09T23:36:38.417Z,101332.47
2022-10-09T23:39:06.961Z,101324.47
2022-10-09T23:41:34.572Z,101324.47
2022-10-09T23:44:01.673Z,101323.63
2022-10-09T23:46:35.562Z,101324.44
2022-10-09T23:49:05.083Z,101325.19
2022-10-09T23:51:34.115Z,101325.97
2022-10-09T23:54:01.147Z,101324.28
2022-10-09T23:56:35.136Z,101321.47
2022-10-09T23:59:07.972Z,101310.13
